Urb El Torito, Puerto Rico
Current Conditions -  °F | °C
As of 6:56 PM on Tuesday 27 Jan 2015 (Local Time) from TJSJ Reporting Station
Scattered Clouds Scattered Clouds  
Wind Chill: 80°   Ceiling: Unl
Heat Index: 84°   Visibility: 10mi
Dew Point: 72°   Wind: 7mph
Humidity: 76%   Direction: 150°SSE
Pressure: 29.99"   Gusts: NA
Location:  18.1193°N, 66.1642°W
Report Text: TJSJ 272256Z 15006KT 10SM SCT060 27/22 A2999 RMK AO2 SLP154 T02670222
Loading
Personal Weather Stations






























Interactive Weather Map New forecast layout! Learn more

10-Day Weather Forecast

Advertisements
Track Severe Weather on mobile